sensor_id;sensor_type;location;lat;lon;timestamp;pressure;altitude;pressure_sealevel;temperature;humidity
25869;BME280;13688;53.154;18.136;2022-08-25T00:02:10;101352.84;;;19.75;100.00
25869;BME280;13688;53.154;18.136;2022-08-25T00:07:34;101347.17;;;19.68;100.00
25869;BME280;13688;53.154;18.136;2022-08-25T00:12:57;101346.98;;;19.62;100.00
25869;BME280;13688;53.154;18.136;2022-08-25T00:18:20;101345.97;;;19.63;100.00
25869;BME280;13688;53.154;18.136;2022-08-25T00:23:43;101350.41;;;19.64;100.00
25869;BME280;13688;53.154;18.136;2022-08-25T00:29:06;101360.30;;;19.65;100.00
25869;BME280;13688;53.154;18.136;2022-08-25T00:34:32;101377.77;;;19.54;100.00
25869;BME280;13688;53.154;18.136;2022-08-25T00:39:54;101405.31;;;19.43;100.00
25869;BME280;13688;53.154;18.136;2022-08-25T00:45:17;101408.62;;;19.55;100.00
25869;BME280;13688;53.154;18.136;2022-08-25T00:50:40;101406.84;;;19.63;100.00
25869;BME280;13688;53.154;18.136;2022-08-25T00:56:03;101411.33;;;19.72;100.00
25869;BME280;13688;53.154;18.136;2022-08-25T01:01:27;101412.19;;;19.73;100.00
25869;BME280;13688;53.154;18.136;2022-08-25T01:06:53;101418.99;;;19.69;100.00
25869;BME280;13688;53.154;18.136;2022-08-25T01:12:19;101419.63;;;19.63;100.00
25869;BME280;13688;53.154;18.136;2022-08-25T01:23:11;101423.45;;;19.52;100.00
25869;BME280;13688;53.154;18.136;2022-08-25T01:28:34;101434.53;;;19.51;100.00
25869;BME280;13688;53.154;18.136;2022-08-25T01:34:17;101421.19;;;19.48;100.00
25869;BME280;13688;53.154;18.136;2022-08-25T01:39:41;101400.88;;;19.42;100.00
25869;BME280;13688;53.154;18.136;2022-08-25T01:45:04;101400.88;;;19.42;100.00
25869;BME280;13688;53.154;18.136;2022-08-25T01:50:28;101409.00;;;19.34;100.00
25869;BME280;13688;53.154;18.136;2022-08-25T01:55:50;101402.30;;;19.28;100.00
25869;BME280;13688;53.154;18.136;2022-08-25T02:01:19;101406.70;;;19.21;100.00
25869;BME280;13688;53.154;18.136;2022-08-25T02:06:43;101409.03;;;19.16;100.00
25869;BME280;13688;53.154;18.136;2022-08-25T02:12:05;101404.77;;;19.13;100.00
25869;BME280;13688;53.154;18.136;2022-08-25T02:17:28;101396.25;;;19.16;100.00
25869;BME280;13688;53.154;18.136;2022-08-25T02:22:53;101397.27;;;19.15;100.00
25869;BME280;13688;53.154;18.136;2022-08-25T02:28:17;101393.00;;;19.13;100.00
25869;BME280;13688;53.154;18.136;2022-08-25T02:33:40;101399.93;;;19.07;100.00
25869;BME280;13688;53.154;18.136;2022-08-25T02:39:04;101401.19;;;19.13;100.00
25869;BME280;13688;53.154;18.136;2022-08-25T02:44:28;101388.77;;;19.19;100.00
25869;BME280;13688;53.154;18.136;2022-08-25T02:49:50;101384.73;;;19.23;100.00
25869;BME280;13688;53.154;18.136;2022-08-25T02:55:14;101378.09;;;19.25;100.00
25869;BME280;13688;53.154;18.136;2022-08-25T03:00:39;101378.72;;;19.19;100.00
25869;BME280;13688;53.154;18.136;2022-08-25T03:06:02;101379.37;;;19.13;100.00
25869;BME280;13688;53.154;18.136;2022-08-25T03:11:26;101366.20;;;19.08;100.00
25869;BME280;13688;53.154;18.136;2022-08-25T03:16:49;101363.41;;;19.00;100.00
25869;BME280;13688;53.154;18.136;2022-08-25T03:22:14;101366.30;;;18.99;100.00
25869;BME280;13688;53.154;18.136;2022-08-25T03:27:36;101366.95;;;18.93;100.00
25869;BME280;13688;53.154;18.136;2022-08-25T03:33:01;101380.58;;;18.93;100.00
25869;BME280;13688;53.154;18.136;2022-08-25T03:38:23;101377.29;;;18.89;100.00
25869;BME280;13688;53.154;18.136;2022-08-25T03:43:47;101375.22;;;18.83;100.00
25869;BME280;13688;53.154;18.136;2022-08-25T03:49:12;101384.33;;;18.74;100.00
25869;BME280;13688;53.154;18.136;2022-08-25T03:54:38;101386.97;;;18.66;100.00
25869;BME280;13688;53.154;18.136;2022-08-25T04:00:01;101392.70;;;18.63;100.00
25869;BME280;13688;53.154;18.136;2022-08-25T04:05:25;101397.05;;;18.55;100.00
25869;BME280;13688;53.154;18.136;2022-08-25T04:10:48;101400.78;;;18.54;100.00
25869;BME280;13688;53.154;18.136;2022-08-25T04:16:20;101396.35;;;18.53;100.00
25869;BME280;13688;53.154;18.136;2022-08-25T04:21:46;101401.32;;;18.58;100.00
25869;BME280;13688;53.154;18.136;2022-08-25T04:27:09;101403.44;;;18.64;100.00
25869;BME280;13688;53.154;18.136;2022-08-25T04:32:31;101405.55;;;18.70;100.00
25869;BME280;13688;53.154;18.136;2022-08-25T04:37:54;101402.59;;;18.81;100.00
25869;BME280;13688;53.154;18.136;2022-08-25T04:43:17;101400.67;;;18.92;100.00
25869;BME280;13688;53.154;18.136;2022-08-25T04:48:40;101408.76;;;19.01;100.00
25869;BME280;13688;53.154;18.136;2022-08-25T04:54:06;101401.71;;;19.16;100.00
25869;BME280;13688;53.154;18.136;2022-08-25T04:59:39;101401.91;;;19.41;100.00
25869;BME280;13688;53.154;18.136;2022-08-25T05:05:02;101400.39;;;19.47;100.00
25869;BME280;13688;53.154;18.136;2022-08-25T05:10:25;101403.34;;;19.53;100.00
25869;BME280;13688;53.154;18.136;2022-08-25T05:15:52;101394.22;;;19.62;100.00
25869;BME280;13688;53.154;18.136;2022-08-25T05:21:19;101397.47;;;19.66;100.00
25869;BME280;13688;53.154;18.136;2022-08-25T05:26:43;101406.20;;;19.69;100.00
25869;BME280;13688;53.154;18.136;2022-08-25T05:32:06;101413.60;;;19.85;100.00
25869;BME280;13688;53.154;18.136;2022-08-25T05:37:29;101411.98;;;20.00;100.00
25869;BME280;13688;53.154;18.136;2022-08-25T05:42:51;101416.81;;;20.15;100.00
25869;BME280;13688;53.154;18.136;2022-08-25T05:48:14;101418.51;;;20.08;100.00
25869;BME280;13688;53.154;18.136;2022-08-25T05:53:38;101410.28;;;19.99;100.00
25869;BME280;13688;53.154;18.136;2022-08-25T05:59:01;101414.34;;;19.95;100.00
25869;BME280;13688;53.154;18.136;2022-08-25T06:04:24;101428.88;;;20.04;100.00
25869;BME280;13688;53.154;18.136;2022-08-25T06:09:48;101436.81;;;20.23;100.00
25869;BME280;13688;53.154;18.136;2022-08-25T06:15:13;101431.86;;;20.19;98.42
25869;BME280;13688;53.154;18.136;2022-08-25T06:20:37;101434.45;;;20.28;97.38
25869;BME280;13688;53.154;18.136;2022-08-25T06:25:59;101442.14;;;20.33;96.87
25869;BME280;13688;53.154;18.136;2022-08-25T06:31:25;101433.35;;;20.55;95.40
25869;BME280;13688;53.154;18.136;2022-08-25T06:36:48;101439.06;;;20.78;92.36
25869;BME280;13688;53.154;18.136;2022-08-25T06:42:10;101433.57;;;20.70;91.25
25869;BME280;13688;53.154;18.136;2022-08-25T06:47:33;101435.23;;;20.55;91.28
25869;BME280;13688;53.154;18.136;2022-08-25T06:52:55;101427.73;;;20.49;92.33
25869;BME280;13688;53.154;18.136;2022-08-25T06:58:18;101422.09;;;20.50;92.78
25869;BME280;13688;53.154;18.136;2022-08-25T07:03:41;101428.91;;;20.54;93.04
25869;BME280;13688;53.154;18.136;2022-08-25T07:09:11;101418.20;;;20.69;92.38
25869;BME280;13688;53.154;18.136;2022-08-25T07:14:35;101417.89;;;20.97;90.60
25869;BME280;13688;53.154;18.136;2022-08-25T07:20:01;101416.03;;;21.38;87.69
25869;BME280;13688;53.154;18.136;2022-08-25T07:25:28;101404.14;;;21.78;82.54
25869;BME280;13688;53.154;18.136;2022-08-25T07:30:50;101417.06;;;22.09;79.68
25869;BME280;13688;53.154;18.136;2022-08-25T07:36:15;101417.11;;;22.40;77.78
25869;BME280;13688;53.154;18.136;2022-08-25T07:41:38;101418.07;;;22.47;75.98
25869;BME280;13688;53.154;18.136;2022-08-25T07:47:01;101416.83;;;22.89;74.71
25869;BME280;13688;53.154;18.136;2022-08-25T07:52:25;101412.98;;;22.98;72.61
25869;BME280;13688;53.154;18.136;2022-08-25T07:57:48;101400.59;;;23.02;72.18
25869;BME280;13688;53.154;18.136;2022-08-25T08:03:12;101404.81;;;22.90;72.85
25869;BME280;13688;53.154;18.136;2022-08-25T08:08:37;101413.05;;;22.90;72.52
25869;BME280;13688;53.154;18.136;2022-08-25T08:14:03;101406.02;;;23.10;72.68
25869;BME280;13688;53.154;18.136;2022-08-25T08:19:27;101408.50;;;23.20;71.41
25869;BME280;13688;53.154;18.136;2022-08-25T08:24:52;101404.15;;;23.25;71.37
25869;BME280;13688;53.154;18.136;2022-08-25T08:30:18;101409.48;;;23.27;70.89
25869;BME280;13688;53.154;18.136;2022-08-25T08:35:40;101411.53;;;23.25;70.80
25869;BME280;13688;53.154;18.136;2022-08-25T08:47:41;101411.44;;;23.18;72.44
25869;BME280;13688;53.154;18.136;2022-08-25T08:53:31;101407.13;;;23.38;71.89
25869;BME280;13688;53.154;18.136;2022-08-25T08:58:59;101397.26;;;23.67;70.53
25869;BME280;13688;53.154;18.136;2022-08-25T09:04:45;101392.91;;;23.87;69.36
25869;BME280;13688;53.154;18.136;2022-08-25T09:10:11;101394.02;;;24.08;68.81
25869;BME280;13688;53.154;18.136;2022-08-25T09:21:45;101388.72;;;23.91;68.35
25869;BME280;13688;53.154;18.136;2022-08-25T09:27:28;101386.92;;;23.98;68.40
25869;BME280;13688;53.154;18.136;2022-08-25T09:32:55;101397.34;;;24.33;67.66
25869;BME280;13688;53.154;18.136;2022-08-25T09:38:19;101387.02;;;24.56;66.67
25869;BME280;13688;53.154;18.136;2022-08-25T09:43:52;101386.91;;;24.86;65.50
25869;BME280;13688;53.154;18.136;2022-08-25T09:49:19;101377.74;;;25.00;64.15
25869;BME280;13688;53.154;18.136;2022-08-25T09:54:43;101377.90;;;26.10;61.32
25869;BME280;13688;53.154;18.136;2022-08-25T10:00:29;101369.27;;;27.07;56.79
25869;BME280;13688;53.154;18.136;2022-08-25T10:06:06;101374.16;;;27.05;55.40
25869;BME280;13688;53.154;18.136;2022-08-25T10:11:41;101368.28;;;26.41;58.20
25869;BME280;13688;53.154;18.136;2022-08-25T10:17:24;101355.44;;;26.88;57.16
25869;BME280;13688;53.154;18.136;2022-08-25T10:22:49;101352.00;;;26.72;56.44
25869;BME280;13688;53.154;18.136;2022-08-25T10:29:15;101341.39;;;27.55;54.74
25869;BME280;13688;53.154;18.136;2022-08-25T10:39:40;101326.44;;;28.41;53.54
25869;BME280;13688;53.154;18.136;2022-08-25T10:45:34;101320.55;;;27.59;53.35
25869;BME280;13688;53.154;18.136;2022-08-25T11:09:01;101305.84;;;27.79;55.35
25869;BME280;13688;53.154;18.136;2022-08-25T11:14:30;101306.95;;;29.35;50.55
25869;BME280;13688;53.154;18.136;2022-08-25T11:19:59;101299.84;;;29.64;48.38
25869;BME280;13688;53.154;18.136;2022-08-25T11:25:35;101294.02;;;30.03;47.43
25869;BME280;13688;53.154;18.136;2022-08-25T11:31:02;101284.30;;;30.84;45.28
25869;BME280;13688;53.154;18.136;2022-08-25T11:36:29;101275.27;;;31.12;44.76
25869;BME280;13688;53.154;18.136;2022-08-25T11:48:21;101270.42;;;30.95;45.27
25869;BME280;13688;53.154;18.136;2022-08-25T11:53:48;101270.05;;;31.15;44.42
25869;BME280;13688;53.154;18.136;2022-08-25T12:05:49;101265.06;;;31.64;43.25
25869;BME280;13688;53.154;18.136;2022-08-25T12:11:45;101258.72;;;31.40;43.02
25869;BME280;13688;53.154;18.136;2022-08-25T12:17:25;101255.91;;;31.52;42.58
25869;BME280;13688;53.154;18.136;2022-08-25T12:22:59;101242.61;;;32.23;41.40
25869;BME280;13688;53.154;18.136;2022-08-25T12:28:52;101243.52;;;31.83;41.37
25869;BME280;13688;53.154;18.136;2022-08-25T12:34:39;101235.42;;;32.10;39.37
25869;BME280;13688;53.154;18.136;2022-08-25T12:40:28;101231.98;;;32.19;41.91
25869;BME280;13688;53.154;18.136;2022-08-25T12:46:31;101227.80;;;31.37;43.48
25869;BME280;13688;53.154;18.136;2022-08-25T13:15:00;101199.59;;;31.56;40.80
25869;BME280;13688;53.154;18.136;2022-08-25T13:20:31;101201.12;;;32.04;40.27
25869;BME280;13688;53.154;18.136;2022-08-25T13:25:56;101189.34;;;32.98;38.04
25869;BME280;13688;53.154;18.136;2022-08-25T13:31:21;101193.84;;;32.49;38.93
25869;BME280;13688;53.154;18.136;2022-08-25T13:36:51;101194.97;;;32.19;40.17
25869;BME280;13688;53.154;18.136;2022-08-25T13:42:33;101187.36;;;32.43;38.73
25869;BME280;13688;53.154;18.136;2022-08-25T13:47:57;101188.14;;;33.11;39.11
25869;BME280;13688;53.154;18.136;2022-08-25T13:53:23;101191.05;;;32.82;39.13
25869;BME280;13688;53.154;18.136;2022-08-25T13:58:47;101179.52;;;32.11;40.76
25869;BME280;13688;53.154;18.136;2022-08-25T14:04:43;101173.15;;;32.95;39.30
25869;BME280;13688;53.154;18.136;2022-08-25T14:10:05;101164.31;;;32.31;40.31
25869;BME280;13688;53.154;18.136;2022-08-25T14:15:32;101159.47;;;32.09;39.54
25869;BME280;13688;53.154;18.136;2022-08-25T14:20:57;101163.60;;;32.07;39.78
25869;BME280;13688;53.154;18.136;2022-08-25T14:26:27;101167.85;;;33.15;38.76
25869;BME280;13688;53.154;18.136;2022-08-25T14:31:51;101158.11;;;32.79;39.65
25869;BME280;13688;53.154;18.136;2022-08-25T14:37:21;101147.00;;;32.29;41.06
25869;BME280;13688;53.154;18.136;2022-08-25T14:42:46;101143.14;;;32.63;41.06
25869;BME280;13688;53.154;18.136;2022-08-25T14:48:13;101150.98;;;32.33;41.74
25869;BME280;13688;53.154;18.136;2022-08-25T14:53:37;101143.05;;;32.58;41.13
25869;BME280;13688;53.154;18.136;2022-08-25T14:59:01;101135.37;;;32.32;41.33
25869;BME280;13688;53.154;18.136;2022-08-25T15:04:27;101129.84;;;31.06;44.88
25869;BME280;13688;53.154;18.136;2022-08-25T15:09:52;101137.16;;;31.36;44.82
25869;BME280;13688;53.154;18.136;2022-08-25T15:15:15;101138.05;;;31.13;45.74
25869;BME280;13688;53.154;18.136;2022-08-25T15:20:40;101132.11;;;31.32;45.08
25869;BME280;13688;53.154;18.136;2022-08-25T15:26:02;101131.22;;;30.68;46.40
25869;BME280;13688;53.154;18.136;2022-08-25T15:31:25;101124.77;;;31.55;44.68
25869;BME280;13688;53.154;18.136;2022-08-25T15:36:48;101127.08;;;31.86;43.75
25869;BME280;13688;53.154;18.136;2022-08-25T15:42:16;101125.86;;;31.54;44.46
25869;BME280;13688;53.154;18.136;2022-08-25T15:47:38;101117.38;;;31.89;43.92
25869;BME280;13688;53.154;18.136;2022-08-25T15:53:02;101119.05;;;31.33;44.98
25869;BME280;13688;53.154;18.136;2022-08-25T15:58:26;101106.78;;;31.74;44.29
25869;BME280;13688;53.154;18.136;2022-08-25T16:03:50;101099.08;;;31.48;43.88
25869;BME280;13688;53.154;18.136;2022-08-25T16:09:13;101093.25;;;31.21;44.73
25869;BME280;13688;53.154;18.136;2022-08-25T16:14:37;101087.80;;;31.14;44.90
25869;BME280;13688;53.154;18.136;2022-08-25T16:20:03;101084.59;;;30.94;45.16
25869;BME280;13688;53.154;18.136;2022-08-25T16:25:26;101068.13;;;30.40;47.52
25869;BME280;13688;53.154;18.136;2022-08-25T16:30:54;101069.42;;;30.49;47.11
25869;BME280;13688;53.154;18.136;2022-08-25T16:36:20;101076.08;;;30.25;47.52
25869;BME280;13688;53.154;18.136;2022-08-25T16:41:42;101072.36;;;29.78;48.89
25869;BME280;13688;53.154;18.136;2022-08-25T16:47:05;101072.72;;;29.21;50.28
25869;BME280;13688;53.154;18.136;2022-08-25T16:52:28;101073.48;;;28.55;51.72
25869;BME280;13688;53.154;18.136;2022-08-25T16:58:11;101068.95;;;28.42;53.03
25869;BME280;13688;53.154;18.136;2022-08-25T17:03:35;101064.32;;;28.36;52.69
25869;BME280;13688;53.154;18.136;2022-08-25T17:08:58;101073.64;;;27.92;54.03
25869;BME280;13688;53.154;18.136;2022-08-25T17:14:22;101086.34;;;27.68;55.03
25869;BME280;13688;53.154;18.136;2022-08-25T17:19:45;101086.66;;;27.47;55.87
25869;BME280;13688;53.154;18.136;2022-08-25T17:25:10;101081.33;;;27.00;57.24
25869;BME280;13688;53.154;18.136;2022-08-25T17:30:36;101077.64;;;26.62;58.72
25869;BME280;13688;53.154;18.136;2022-08-25T17:36:01;101082.56;;;26.13;60.39
25869;BME280;13688;53.154;18.136;2022-08-25T17:41:26;101076.41;;;25.85;61.72
25869;BME280;13688;53.154;18.136;2022-08-25T17:46:49;101077.19;;;25.52;62.97
25869;BME280;13688;53.154;18.136;2022-08-25T17:52:13;101080.07;;;25.24;64.34
25869;BME280;13688;53.154;18.136;2022-08-25T17:57:35;101075.27;;;24.98;65.66
25869;BME280;13688;53.154;18.136;2022-08-25T18:02:59;101074.97;;;24.80;66.64
25869;BME280;13688;53.154;18.136;2022-08-25T18:08:22;101078.72;;;24.66;67.76
25869;BME280;13688;53.154;18.136;2022-08-25T18:13:46;101082.25;;;24.53;68.69
25869;BME280;13688;53.154;18.136;2022-08-25T18:19:09;101084.25;;;24.38;70.13
25869;BME280;13688;53.154;18.136;2022-08-25T18:24:32;101091.67;;;24.16;72.66
25869;BME280;13688;53.154;18.136;2022-08-25T18:29:55;101094.49;;;24.01;74.25
25869;BME280;13688;53.154;18.136;2022-08-25T18:35:17;101097.13;;;23.88;75.29
25869;BME280;13688;53.154;18.136;2022-08-25T18:40:40;101096.30;;;23.66;76.47
25869;BME280;13688;53.154;18.136;2022-08-25T18:46:04;101091.74;;;23.58;77.33
25869;BME280;13688;53.154;18.136;2022-08-25T18:51:28;101099.16;;;23.43;78.05
25869;BME280;13688;53.154;18.136;2022-08-25T18:56:51;101092.80;;;23.21;79.67
25869;BME280;13688;53.154;18.136;2022-08-25T19:02:16;101090.56;;;23.10;80.92
25869;BME280;13688;53.154;18.136;2022-08-25T19:07:40;101084.52;;;23.00;81.28
25869;BME280;13688;53.154;18.136;2022-08-25T19:13:03;101085.86;;;22.89;82.06
25869;BME280;13688;53.154;18.136;2022-08-25T19:18:27;101098.88;;;22.72;83.07
25869;BME280;13688;53.154;18.136;2022-08-25T19:23:53;101089.44;;;22.60;83.78
25869;BME280;13688;53.154;18.136;2022-08-25T19:29:17;101098.98;;;22.49;84.93
25869;BME280;13688;53.154;18.136;2022-08-25T19:34:43;101097.25;;;22.34;85.67
25869;BME280;13688;53.154;18.136;2022-08-25T19:40:07;101098.18;;;22.26;86.75
25869;BME280;13688;53.154;18.136;2022-08-25T19:45:31;101099.11;;;22.18;87.27
25869;BME280;13688;53.154;18.136;2022-08-25T19:50:55;101105.92;;;21.99;88.97
25869;BME280;13688;53.154;18.136;2022-08-25T19:56:19;101101.55;;;21.90;90.87
25869;BME280;13688;53.154;18.136;2022-08-25T20:01:44;101108.49;;;21.78;92.08
25869;BME280;13688;53.154;18.136;2022-08-25T20:07:07;101108.40;;;21.71;93.26
25869;BME280;13688;53.154;18.136;2022-08-25T20:12:33;101106.05;;;21.60;94.20
25869;BME280;13688;53.154;18.136;2022-08-25T20:17:55;101114.69;;;21.49;95.80
25869;BME280;13688;53.154;18.136;2022-08-25T20:23:18;101114.25;;;21.37;97.65
25869;BME280;13688;53.154;18.136;2022-08-25T20:28:58;101109.02;;;21.28;99.92
25869;BME280;13688;53.154;18.136;2022-08-25T20:34:21;101109.20;;;21.18;100.00
25869;BME280;13688;53.154;18.136;2022-08-25T20:39:46;101115.55;;;21.10;100.00
25869;BME280;13688;53.154;18.136;2022-08-25T20:45:11;101113.55;;;21.04;100.00
25869;BME280;13688;53.154;18.136;2022-08-25T20:50:36;101115.28;;;20.97;100.00
25869;BME280;13688;53.154;18.136;2022-08-25T20:55:59;101114.64;;;20.87;100.00
25869;BME280;13688;53.154;18.136;2022-08-25T21:01:26;101115.05;;;20.68;100.00
25869;BME280;13688;53.154;18.136;2022-08-25T21:06:51;101111.48;;;20.59;100.00
25869;BME280;13688;53.154;18.136;2022-08-25T21:12:15;101102.63;;;20.57;100.00
25869;BME280;13688;53.154;18.136;2022-08-25T21:17:39;101105.68;;;20.54;100.00
25869;BME280;13688;53.154;18.136;2022-08-25T21:23:12;101093.39;;;20.58;100.00
25869;BME280;13688;53.154;18.136;2022-08-25T21:28:35;101097.68;;;20.44;100.00
25869;BME280;13688;53.154;18.136;2022-08-25T21:33:59;101091.20;;;20.37;100.00
25869;BME280;13688;53.154;18.136;2022-08-25T21:39:23;101098.87;;;20.34;100.00
25869;BME280;13688;53.154;18.136;2022-08-25T21:44:46;101100.08;;;20.31;100.00
25869;BME280;13688;53.154;18.136;2022-08-25T21:50:10;101092.55;;;20.33;100.00
25869;BME280;13688;53.154;18.136;2022-08-25T21:55:36;101096.14;;;20.34;100.00
25869;BME280;13688;53.154;18.136;2022-08-25T22:01:05;101092.73;;;20.32;100.00
25869;BME280;13688;53.154;18.136;2022-08-25T22:06:31;101096.98;;;20.34;100.00
25869;BME280;13688;53.154;18.136;2022-08-25T22:11:55;101099.89;;;20.33;100.00
25869;BME280;13688;53.154;18.136;2022-08-25T22:17:18;101093.94;;;20.37;100.00
25869;BME280;13688;53.154;18.136;2022-08-25T22:22:40;101093.08;;;20.37;100.00
25869;BME280;13688;53.154;18.136;2022-08-25T22:28:03;101094.44;;;20.33;100.00
25869;BME280;13688;53.154;18.136;2022-08-25T22:33:25;101079.75;;;20.34;100.00
25869;BME280;13688;53.154;18.136;2022-08-25T22:38:49;101075.32;;;20.33;100.00
25869;BME280;13688;53.154;18.136;2022-08-25T22:44:12;101075.15;;;20.26;100.00
25869;BME280;13688;53.154;18.136;2022-08-25T22:49:34;101070.41;;;20.20;100.00
25869;BME280;13688;53.154;18.136;2022-08-25T22:54:58;101063.56;;;20.16;100.00
25869;BME280;13688;53.154;18.136;2022-08-25T23:00:21;101053.00;;;20.13;100.00
25869;BME280;13688;53.154;18.136;2022-08-25T23:05:44;101056.95;;;20.02;100.00
25869;BME280;13688;53.154;18.136;2022-08-25T23:11:07;101050.45;;;20.03;100.00
25869;BME280;13688;53.154;18.136;2022-08-25T23:16:31;101044.50;;;19.99;100.00
25869;BME280;13688;53.154;18.136;2022-08-25T23:21:54;101041.78;;;19.91;100.00
25869;BME280;13688;53.154;18.136;2022-08-25T23:27:25;101041.42;;;19.86;100.00
25869;BME280;13688;53.154;18.136;2022-08-25T23:32:47;101033.41;;;19.85;100.00
25869;BME280;13688;53.154;18.136;2022-08-25T23:38:10;101039.72;;;19.85;100.00
25869;BME280;13688;53.154;18.136;2022-08-25T23:43:35;101032.74;;;19.83;100.00
25869;BME280;13688;53.154;18.136;2022-08-25T23:48:59;101031.04;;;19.82;100.00
25869;BME280;13688;53.154;18.136;2022-08-25T23:54:23;101019.77;;;19.85;100.00
25869;BME280;13688;53.154;18.136;2022-08-25T23:59:45;101016.87;;;19.86;100.00
